Terminal Aerodrome Forecast
Issued by NWS

Home | Current Version | Previous Version | Text Only | Print | Product List | Glossary On
Versions: 1 2 3 4 5 6 7 8 9 10 11 12
000
FTUS45 KREV 211136
TAFMMH
TAF
KMMH 211136Z 2112/2212 31009G16KT P6SM -SHRA BKN035 OVC050
     FM211400 26015G25KT P6SM SCT035 SCT080
     FM211900 28020G30KT P6SM VCSH BKN040
     FM220200 27010KT P6SM SCT050=

USA.gov is the U.S. government's official web portal to all federal, state and local government web resources and services.